Terminal Aerodrome Forecast
Issued by NWS Newport/Morehead City, NC

Home | Current Version | Previous Version | Graphics & Text | Print | Product List | Glossary On
Versions: 1 2 3 4 5 6 7 8 9 10 11 12 13 14 15 16 17 18 19 20 21 22
000
FTUS42 KMHX 062354
TAFEWN
TAF
KEWN 062354Z 0700/0724 28013G21KT P6SM OVC007
     FM070800 30007KT 5SM BR SCT003 BKN007
     FM071300 34006KT P6SM SCT020
     FM072000 03005KT P6SM BKN020=

USA.gov is the U.S. government's official web portal to all federal, state and local government web resources and services.